Time;durP1;ratioP1;P1;durP2;ratioP2;P2;SDS_P1;SDS_P2;PMS_P1;PMS_P2;Temp;Humidity;BMP_temperature;BMP_pressure;BME280_temperature;BME280_humidity;BME280_pressure;Samples;Min_cycle;Max_cycle;Signal;HPM_P1;HPM_P2
2022/09/16 00:00:35;;;;;;;;;;;18.20;52.40;;;;;;6240703;23;19934;-88
2022/09/16 00:03:01;;;;;;;;;;;18.10;52.50;;;;;;6242978;22;19987;-88
2022/09/16 00:05:26;;;;;;;;;;;18.10;52.60;;;;;;6243026;22;20248;-86
2022/09/16 00:07:53;;;;;;;;;;;18.10;52.60;;;;;;6244291;22;19920;-90
2022/09/16 00:10:18;;;;;;;;;;;18.10;52.80;;;;;;6241248;23;19904;-90
2022/09/16 00:12:44;;;;;;;;;;;18.00;52.80;;;;;;6242839;22;20271;-91
2022/09/16 00:15:09;;;;;;;;;;;18.00;52.80;;;;;;6239852;23;20275;-86
2022/09/16 00:17:36;;;;;;;;;;;18.00;53.10;;;;;;6242736;22;19943;-85
2022/09/16 00:20:03;;;;;;;;;;;18.00;53.10;;;;;;6240451;22;19915;-90
2022/09/16 00:22:29;;;;;;;;;;;18.00;53.10;;;;;;6242965;22;19907;-87
2022/09/16 00:24:54;;;;;;;;;;;18.00;53.10;;;;;;6239584;22;19946;-91
2022/09/16 00:27:20;;;;;;;;;;;18.00;53.10;;;;;;6241519;22;19916;-88
2022/09/16 00:29:45;;;;;;;;;;;18.10;53.20;;;;;;6239993;22;19994;-87
2022/09/16 00:32:11;;;;;;;;;;;18.20;53.10;;;;;;6242537;23;19949;-88
2022/09/16 00:34:36;;;;;;;;;;;18.20;53.10;;;;;;6240819;22;19908;-90
2022/09/16 00:37:02;;;;;;;;;;;18.20;53.00;;;;;;6242133;23;19912;-88
2022/09/16 00:39:28;;;;;;;;;;;18.20;53.10;;;;;;6245539;22;19907;-90
2022/09/16 00:41:54;;;;;;;;;;;18.30;53.10;;;;;;6242071;23;20246;-87
2022/09/16 00:44:38;;;;;;;;;;;18.30;53.10;;;;;;6240868;22;19908;-87
2022/09/16 00:47:04;;;;;;;;;;;18.30;53.10;;;;;;6240796;23;20300;-89
2022/09/16 00:49:30;;;;;;;;;;;18.40;53.10;;;;;;6240597;22;19915;-88
2022/09/16 00:51:58;;;;;;;;;;;18.40;53.00;;;;;;6241613;22;19934;-85
2022/09/16 00:54:24;;;;;;;;;;;18.40;53.00;;;;;;6243630;22;19912;-87
2022/09/16 00:56:51;;;;;;;;;;;18.50;53.00;;;;;;6244272;22;19915;-91
2022/09/16 00:59:23;;;;;;;;;;;18.50;53.10;;;;;;6243706;22;19983;-90
2022/09/16 01:01:49;;;;;;;;;;;18.60;53.10;;;;;;6244672;22;20272;-90
2022/09/16 01:04:18;;;;;;;;;;;18.50;53.00;;;;;;6242526;22;19922;-88
2022/09/16 01:06:43;;;;;;;;;;;18.60;53.10;;;;;;6244990;22;19915;-86
2022/09/16 01:09:08;;;;;;;;;;;18.60;52.90;;;;;;6243180;22;19998;-87
2022/09/16 01:11:34;;;;;;;;;;;18.60;53.00;;;;;;6242007;23;19912;-88
2022/09/16 01:14:52;;;;;;;;;;;18.60;52.90;;;;;;6243830;22;20005;-89
2022/09/16 01:16:58;;;;;;;;;;;18.60;52.90;;;;;;6246195;22;19908;-88
2022/09/16 01:19:23;;;;;;;;;;;18.60;53.00;;;;;;6243546;22;19931;-88
2022/09/16 01:21:55;;;;;;;;;;;18.60;53.10;;;;;;6243511;23;20270;-91
2022/09/16 01:24:39;;;;;;;;;;;18.70;53.10;;;;;;6243427;22;19908;-87
2022/09/16 01:27:08;;;;;;;;;;;18.70;53.20;;;;;;6241287;23;19912;-85
2022/09/16 01:29:53;;;;;;;;;;;18.70;53.20;;;;;;6266881;22;19912;-90
2022/09/16 01:32:37;;;;;;;;;;;18.70;53.20;;;;;;6244616;23;19908;-85
2022/09/16 01:35:07;;;;;;;;;;;18.70;53.20;;;;;;6242190;22;20204;-87
2022/09/16 01:37:41;;;;;;;;;;;18.70;53.10;;;;;;6241581;23;19995;-86
2022/09/16 01:40:07;;;;;;;;;;;18.70;53.00;;;;;;6241996;23;19986;-86
2022/09/16 01:42:39;;;;;;;;;;;18.70;52.90;;;;;;6243487;22;19907;-87
2022/09/16 01:45:18;;;;;;;;;;;18.70;52.80;;;;;;6242671;22;19910;-90
2022/09/16 01:47:53;;;;;;;;;;;18.70;52.70;;;;;;6241567;22;19974;-90
2022/09/16 01:50:23;;;;;;;;;;;18.60;52.70;;;;;;6241552;23;19903;-87
2022/09/16 01:52:53;;;;;;;;;;;18.50;52.80;;;;;;6243209;22;19908;-88
2022/09/16 01:55:25;;;;;;;;;;;18.40;52.80;;;;;;6243123;22;20271;-87
2022/09/16 01:57:50;;;;;;;;;;;18.30;52.80;;;;;;6241859;22;19908;-88
2022/09/16 02:00:16;;;;;;;;;;;18.10;52.90;;;;;;6242900;23;19922;-88
2022/09/16 02:02:41;;;;;;;;;;;18.00;53.10;;;;;;6242921;23;19912;-90
2022/09/16 02:05:10;;;;;;;;;;;17.90;53.20;;;;;;6240646;23;19950;-86
2022/09/16 02:07:39;;;;;;;;;;;17.80;53.30;;;;;;6241443;23;19915;-89
2022/09/16 02:10:15;;;;;;;;;;;17.70;53.40;;;;;;6243574;22;19930;-88
2022/09/16 02:12:41;;;;;;;;;;;17.70;53.50;;;;;;6241397;23;20687;-88
2022/09/16 02:15:10;;;;;;;;;;;17.60;53.70;;;;;;6242687;22;19908;-86
2022/09/16 02:17:39;;;;;;;;;;;17.50;53.90;;;;;;6243201;22;19912;-89
2022/09/16 02:20:07;;;;;;;;;;;17.40;54.10;;;;;;6242851;22;20000;-87
2022/09/16 02:22:38;;;;;;;;;;;17.30;54.20;;;;;;6244347;22;19912;-87
2022/09/16 02:25:05;;;;;;;;;;;17.30;54.50;;;;;;6242844;22;19916;-88
2022/09/16 02:27:31;;;;;;;;;;;17.20;54.50;;;;;;6240794;23;19920;-88
2022/09/16 02:30:00;;;;;;;;;;;17.20;54.70;;;;;;6242436;22;19907;-86
2022/09/16 02:32:27;;;;;;;;;;;17.10;54.70;;;;;;6241363;23;19959;-89
2022/09/16 02:34:53;;;;;;;;;;;17.10;54.70;;;;;;6240662;22;19986;-86
2022/09/16 02:37:34;;;;;;;;;;;17.00;54.90;;;;;;6241454;23;20030;-89
2022/09/16 02:40:04;;;;;;;;;;;17.10;54.80;;;;;;6242172;22;19912;-91
2022/09/16 02:42:30;;;;;;;;;;;17.00;55.00;;;;;;6242755;22;19908;-89
2022/09/16 02:44:56;;;;;;;;;;;17.00;55.00;;;;;;6241573;22;20276;-89
2022/09/16 02:47:40;;;;;;;;;;;17.10;55.10;;;;;;6242905;22;19915;-88
2022/09/16 02:50:09;;;;;;;;;;;17.10;55.30;;;;;;6240608;22;19911;-88
2022/09/16 02:52:54;;;;;;;;;;;17.10;55.40;;;;;;6242203;22;20002;-88
2022/09/16 02:55:45;;;;;;;;;;;17.10;55.40;;;;;;6242270;22;20366;-89
2022/09/16 02:58:10;;;;;;;;;;;17.20;55.60;;;;;;6241269;22;20213;-88
2022/09/16 03:00:38;;;;;;;;;;;17.20;55.60;;;;;;6240948;23;19911;-86
2022/09/16 03:03:03;;;;;;;;;;;17.20;55.60;;;;;;6242400;22;20397;-89
2022/09/16 03:05:29;;;;;;;;;;;17.30;55.50;;;;;;6242016;23;19903;-86
2022/09/16 03:07:55;;;;;;;;;;;17.40;55.70;;;;;;6242092;22;20572;-89
2022/09/16 03:10:22;;;;;;;;;;;17.40;55.70;;;;;;6241713;22;19903;-86
2022/09/16 03:13:07;;;;;;;;;;;17.50;55.70;;;;;;6245326;22;19923;-90
2022/09/16 03:15:39;;;;;;;;;;;17.50;55.50;;;;;;6242799;23;20344;-91
2022/09/16 03:18:19;;;;;;;;;;;17.60;55.50;;;;;;6241154;22;19966;-87
2022/09/16 03:20:52;;;;;;;;;;;17.70;55.40;;;;;;6242875;23;19965;-89
2022/09/16 03:23:25;;;;;;;;;;;17.70;55.40;;;;;;6242441;22;19990;-90
2022/09/16 03:26:06;;;;;;;;;;;17.80;55.20;;;;;;6240136;23;19998;-85
2022/09/16 03:28:37;;;;;;;;;;;17.80;55.10;;;;;;6241526;22;20343;-87
2022/09/16 03:31:06;;;;;;;;;;;17.80;55.00;;;;;;6240793;23;19986;-85
2022/09/16 03:33:34;;;;;;;;;;;17.90;55.00;;;;;;6240016;22;20243;-91
2022/09/16 03:36:02;;;;;;;;;;;17.80;55.00;;;;;;6242400;22;19907;-89
2022/09/16 03:38:28;;;;;;;;;;;17.80;55.20;;;;;;6242506;22;20307;-91
2022/09/16 03:40:54;;;;;;;;;;;17.70;55.40;;;;;;6240384;23;19911;-86
2022/09/16 03:43:19;;;;;;;;;;;17.70;55.60;;;;;;6244285;22;20103;-86
2022/09/16 03:45:45;;;;;;;;;;;17.60;55.70;;;;;;6239906;23;19959;-90
2022/09/16 03:48:11;;;;;;;;;;;17.60;55.80;;;;;;6240209;22;19920;-89
2022/09/16 03:50:37;;;;;;;;;;;17.50;55.90;;;;;;6242192;22;20038;-88
2022/09/16 03:53:02;;;;;;;;;;;17.50;55.90;;;;;;6240033;22;19918;-89
2022/09/16 03:55:28;;;;;;;;;;;17.50;55.90;;;;;;6243085;22;20323;-91
2022/09/16 03:57:53;;;;;;;;;;;17.50;55.90;;;;;;6242726;22;20275;-88
2022/09/16 04:00:19;;;;;;;;;;;17.40;56.10;;;;;;6241183;23;19951;-88
2022/09/16 04:02:45;;;;;;;;;;;17.40;56.10;;;;;;6241571;22;19914;-87
2022/09/16 04:05:10;;;;;;;;;;;17.40;56.10;;;;;;6242003;23;19992;-91
2022/09/16 04:07:36;;;;;;;;;;;17.40;56.10;;;;;;6243082;23;19926;-86
2022/09/16 04:10:02;;;;;;;;;;;17.40;56.10;;;;;;6239973;22;19942;-90
2022/09/16 04:12:28;;;;;;;;;;;17.40;56.10;;;;;;6243829;22;20370;-86
2022/09/16 04:14:54;;;;;;;;;;;17.50;56.00;;;;;;6242457;22;20342;-86
2022/09/16 04:17:20;;;;;;;;;;;17.50;56.00;;;;;;6240718;23;19916;-90
2022/09/16 04:19:45;;;;;;;;;;;17.50;56.00;;;;;;6242016;22;20398;-90
2022/09/16 04:22:11;;;;;;;;;;;17.60;55.90;;;;;;6240129;23;19912;-85
2022/09/16 04:24:36;;;;;;;;;;;17.60;55.80;;;;;;6240040;22;19908;-90
2022/09/16 04:27:02;;;;;;;;;;;17.60;55.80;;;;;;6241701;23;19911;-89
2022/09/16 04:29:27;;;;;;;;;;;17.70;55.80;;;;;;6241606;22;19907;-88
2022/09/16 04:31:53;;;;;;;;;;;17.70;55.70;;;;;;6244549;23;20279;-89
2022/09/16 04:34:19;;;;;;;;;;;17.70;55.70;;;;;;6241331;22;19910;-88
2022/09/16 04:36:44;;;;;;;;;;;17.70;55.70;;;;;;6241954;23;20239;-88
2022/09/16 04:39:11;;;;;;;;;;;17.70;55.60;;;;;;6241339;22;19910;-86
2022/09/16 04:41:37;;;;;;;;;;;17.60;55.50;;;;;;6243809;22;20231;-86
2022/09/16 04:44:03;;;;;;;;;;;17.50;55.40;;;;;;6243446;22;19903;-88
2022/09/16 04:46:29;;;;;;;;;;;17.40;55.40;;;;;;6243862;22;19911;-86
2022/09/16 04:48:55;;;;;;;;;;;17.30;55.50;;;;;;6241459;22;20341;-86
2022/09/16 04:51:21;;;;;;;;;;;17.30;55.70;;;;;;6243693;22;19919;-86
2022/09/16 04:53:47;;;;;;;;;;;17.30;55.80;;;;;;6243373;22;20219;-89
2022/09/16 04:56:14;;;;;;;;;;;17.30;55.70;;;;;;6243444;22;19912;-90
2022/09/16 04:58:41;;;;;;;;;;;17.30;55.80;;;;;;6241787;22;19903;-88
2022/09/16 05:01:11;;;;;;;;;;;17.30;55.80;;;;;;6241901;23;19924;-87
2022/09/16 05:03:46;;;;;;;;;;;17.30;55.90;;;;;;6242978;22;19908;-88
2022/09/16 05:06:13;;;;;;;;;;;17.40;55.80;;;;;;6241518;23;19919;-87
2022/09/16 05:08:39;;;;;;;;;;;17.50;55.80;;;;;;6241728;22;19938;-85
2022/09/16 05:11:06;;;;;;;;;;;17.50;55.70;;;;;;6243949;22;19912;-88
2022/09/16 05:13:32;;;;;;;;;;;17.50;55.70;;;;;;6243074;22;20224;-88
2022/09/16 05:16:05;;;;;;;;;;;17.60;55.60;;;;;;6243527;22;20338;-87
2022/09/16 05:18:30;;;;;;;;;;;17.60;55.60;;;;;;6241527;22;20212;-89
2022/09/16 05:20:57;;;;;;;;;;;17.60;55.50;;;;;;6241260;23;19926;-87
2022/09/16 05:23:22;;;;;;;;;;;17.70;55.50;;;;;;6243607;22;19904;-88
2022/09/16 05:25:48;;;;;;;;;;;17.70;55.40;;;;;;6243687;23;19912;-85
2022/09/16 05:28:13;;;;;;;;;;;17.80;55.40;;;;;;6242452;22;19915;-88
2022/09/16 05:30:39;;;;;;;;;;;17.80;55.40;;;;;;6243144;23;19964;-90
2022/09/16 05:33:04;;;;;;;;;;;17.80;55.40;;;;;;6241415;22;19907;-88
2022/09/16 05:35:30;;;;;;;;;;;17.80;55.40;;;;;;6246234;23;19911;-90
2022/09/16 05:37:56;;;;;;;;;;;17.80;55.40;;;;;;6240767;22;20745;-90
2022/09/16 05:40:21;;;;;;;;;;;17.90;55.30;;;;;;6241438;23;19935;-87
2022/09/16 05:42:48;;;;;;;;;;;17.90;55.30;;;;;;6242620;22;19943;-88
2022/09/16 05:45:13;;;;;;;;;;;17.90;55.20;;;;;;6244820;23;19908;-86
2022/09/16 05:47:39;;;;;;;;;;;17.90;55.20;;;;;;6240558;23;19935;-89
2022/09/16 05:50:05;;;;;;;;;;;18.00;55.30;;;;;;6243917;22;20307;-86
2022/09/16 05:52:30;;;;;;;;;;;18.00;55.20;;;;;;6237096;22;19923;-87
2022/09/16 05:54:56;;;;;;;;;;;18.00;55.20;;;;;;6237511;22;19912;-90
2022/09/16 05:57:22;;;;;;;;;;;18.00;55.20;;;;;;6238892;23;20348;-89
2022/09/16 05:59:48;;;;;;;;;;;18.10;55.20;;;;;;6240093;22;19908;-91
2022/09/16 06:02:13;;;;;;;;;;;18.10;55.20;;;;;;6239296;23;19974;-88
2022/09/16 06:04:39;;;;;;;;;;;18.20;55.20;;;;;;6239194;22;20243;-86
2022/09/16 06:07:06;;;;;;;;;;;18.30;55.30;;;;;;6239728;23;20609;-87
2022/09/16 06:09:31;;;;;;;;;;;18.30;55.20;;;;;;6237133;22;20555;-87
2022/09/16 06:11:57;;;;;;;;;;;18.40;55.20;;;;;;6239693;23;20018;-86
2022/09/16 06:14:22;;;;;;;;;;;18.60;55.10;;;;;;6237575;22;19907;-86
2022/09/16 06:16:48;;;;;;;;;;;18.70;55.00;;;;;;6238417;23;19916;-89
2022/09/16 06:19:14;;;;;;;;;;;18.80;54.80;;;;;;6238103;22;19915;-87
2022/09/16 06:21:40;;;;;;;;;;;18.80;54.50;;;;;;6238003;23;19990;-89
2022/09/16 06:24:09;;;;;;;;;;;18.90;54.30;;;;;;6237114;22;19935;-87
2022/09/16 06:26:36;;;;;;;;;;;18.90;54.30;;;;;;6237263;23;19919;-90
2022/09/16 06:29:01;;;;;;;;;;;18.90;54.50;;;;;;6238198;22;20502;-86
2022/09/16 06:31:27;;;;;;;;;;;18.80;55.50;;;;;;6238129;23;19958;-88
2022/09/16 06:33:53;;;;;;;;;;;18.60;56.40;;;;;;6236359;22;20053;-86
2022/09/16 06:36:20;;;;;;;;;;;18.50;57.30;;;;;;6238761;22;19938;-91
2022/09/16 06:38:46;;;;;;;;;;;18.30;58.00;;;;;;6237970;22;19915;-90
2022/09/16 06:41:12;;;;;;;;;;;18.30;58.90;;;;;;6235903;23;20324;-86
2022/09/16 06:43:37;;;;;;;;;;;18.30;59.70;;;;;;6237985;22;19907;-88
2022/09/16 06:46:15;;;;;;;;;;;18.30;60.20;;;;;;6236231;23;20254;-89
2022/09/16 06:48:41;;;;;;;;;;;18.30;60.60;;;;;;6236805;22;19962;-89
2022/09/16 06:51:09;;;;;;;;;;;18.30;61.10;;;;;;6237689;23;19916;-88
2022/09/16 06:53:34;;;;;;;;;;;18.40;61.60;;;;;;6238213;22;19908;-92
2022/09/16 06:56:01;;;;;;;;;;;18.50;61.70;;;;;;6262583;22;20656;-87
2022/09/16 06:58:28;;;;;;;;;;;18.50;61.90;;;;;;6240758;22;19907;-91
2022/09/16 07:00:54;;;;;;;;;;;18.50;62.10;;;;;;6238906;22;19981;-88
2022/09/16 07:03:19;;;;;;;;;;;18.60;62.60;;;;;;6237911;22;19911;-91
2022/09/16 07:05:54;;;;;;;;;;;18.60;63.10;;;;;;6236788;23;19946;-86
2022/09/16 07:08:20;;;;;;;;;;;18.90;64.80;;;;;;6238742;22;19922;-89
2022/09/16 07:10:53;;;;;;;;;;;19.40;65.20;;;;;;6236300;23;20733;-86
2022/09/16 07:13:19;;;;;;;;;;;19.70;65.60;;;;;;6238387;22;20332;-87
2022/09/16 07:15:45;;;;;;;;;;;20.30;66.80;;;;;;6236818;23;20299;-89
2022/09/16 07:18:10;;;;;;;;;;;20.90;67.30;;;;;;6235676;22;19908;-89
2022/09/16 07:20:36;;;;;;;;;;;21.70;68.00;;;;;;6236363;23;20616;-88
2022/09/16 07:23:01;;;;;;;;;;;22.40;66.80;;;;;;6236827;22;19908;-92
2022/09/16 07:25:27;;;;;;;;;;;23.20;65.70;;;;;;6237792;23;19943;-89
2022/09/16 07:27:53;;;;;;;;;;;23.80;65.10;;;;;;6236368;22;20327;-88
2022/09/16 07:30:18;;;;;;;;;;;24.30;64.70;;;;;;6238047;22;19908;-89
2022/09/16 07:32:43;;;;;;;;;;;24.80;64.00;;;;;;6236747;22;20046;-87
2022/09/16 07:35:09;;;;;;;;;;;25.30;63.70;;;;;;6235260;23;20007;-88
2022/09/16 07:37:34;;;;;;;;;;;25.80;63.70;;;;;;6235988;23;20255;-89
2022/09/16 07:40:00;;;;;;;;;;;26.40;63.50;;;;;;6236575;22;19908;-89
2022/09/16 07:42:27;;;;;;;;;;;27.10;64.10;;;;;;6239642;23;19943;-88
2022/09/16 07:44:53;;;;;;;;;;;27.80;63.80;;;;;;6236519;22;20319;-92
2022/09/16 07:47:18;;;;;;;;;;;28.30;60.90;;;;;;6239110;23;20223;-87
2022/09/16 07:49:44;;;;;;;;;;;28.30;59.70;;;;;;6240622;22;19918;-89
2022/09/16 07:52:09;;;;;;;;;;;28.30;57.60;;;;;;6236534;23;19986;-88
2022/09/16 07:54:35;;;;;;;;;;;28.00;57.10;;;;;;6240349;22;19950;-87
2022/09/16 07:57:00;;;;;;;;;;;27.70;57.20;;;;;;6236538;23;19942;-87
2022/09/16 07:59:25;;;;;;;;;;;27.30;57.70;;;;;;6236034;22;19923;-87
2022/09/16 08:01:51;;;;;;;;;;;27.30;59.20;;;;;;6241492;23;19912;-91
2022/09/16 08:04:17;;;;;;;;;;;27.40;59.80;;;;;;6242807;22;19915;-86
2022/09/16 08:06:43;;;;;;;;;;;27.70;60.70;;;;;;6240643;22;19918;-91
2022/09/16 08:09:08;;;;;;;;;;;28.00;61.10;;;;;;6243515;22;19919;-88
2022/09/16 08:11:34;;;;;;;;;;;28.50;62.10;;;;;;6240990;23;20336;-87
2022/09/16 08:13:59;;;;;;;;;;;29.00;60.80;;;;;;6240342;22;19946;-87
2022/09/16 08:16:25;;;;;;;;;;;29.40;58.80;;;;;;6240400;23;20275;-89
2022/09/16 08:18:52;;;;;;;;;;;29.90;57.90;;;;;;6238422;22;19911;-89
2022/09/16 08:21:19;;;;;;;;;;;30.30;57.50;;;;;;6242896;23;19991;-87
2022/09/16 08:23:45;;;;;;;;;;;30.70;57.50;;;;;;6238201;22;19974;-88
2022/09/16 08:26:11;;;;;;;;;;;31.10;56.90;;;;;;6235198;23;19919;-91
2022/09/16 08:28:37;;;;;;;;;;;31.40;57.00;;;;;;6239370;22;19916;-88
2022/09/16 08:31:04;;;;;;;;;;;31.80;56.10;;;;;;6239531;22;19950;-88
2022/09/16 08:33:29;;;;;;;;;;;32.20;52.70;;;;;;6236994;22;19910;-88
2022/09/16 08:35:58;;;;;;;;;;;32.60;52.00;;;;;;6235269;23;20323;-87
2022/09/16 08:38:24;;;;;;;;;;;32.90;48.30;;;;;;6238805;22;19911;-88
2022/09/16 08:40:50;;;;;;;;;;;33.10;46.20;;;;;;6238478;23;19916;-90
2022/09/16 08:43:23;;;;;;;;;;;33.30;45.10;;;;;;6238974;22;19907;-86
2022/09/16 08:46:12;;;;;;;;;;;33.50;43.70;;;;;;6238687;22;19998;-93
2022/09/16 08:48:45;;;;;;;;;;;33.80;42.80;;;;;;6227676;22;19915;-89
2022/09/16 08:51:13;;;;;;;;;;;33.80;40.50;;;;;;6237564;23;19963;-87
2022/09/16 08:53:48;;;;;;;;;;;33.90;38.90;;;;;;6237443;22;20323;-89
2022/09/16 08:56:16;;;;;;;;;;;34.00;37.10;;;;;;6238365;22;19989;-89
2022/09/16 08:58:47;;;;;;;;;;;34.30;37.00;;;;;;6239314;22;19908;-87
2022/09/16 09:01:16;;;;;;;;;;;34.50;34.60;;;;;;6239651;22;19915;-90
2022/09/16 09:03:43;;;;;;;;;;;34.70;32.40;;;;;;6240343;22;19974;-89
2022/09/16 09:06:24;;;;;;;;;;;34.80;31.60;;;;;;6237307;22;19922;-88
2022/09/16 09:09:18;;;;;;;;;;;34.80;30.70;;;;;;6237420;22;19915;-91
2022/09/16 09:11:49;;;;;;;;;;;35.00;29.60;;;;;;6156915;22;19921;-88
2022/09/16 09:14:15;;;;;;;;;;;35.20;29.60;;;;;;6238101;22;19918;-90
2022/09/16 09:16:40;;;;;;;;;;;35.50;29.60;;;;;;6236580;23;19919;-90
2022/09/16 09:19:06;;;;;;;;;;;35.70;28.10;;;;;;6237495;22;19907;-91
2022/09/16 09:21:43;;;;;;;;;;;35.90;27.80;;;;;;6237968;23;19916;-90
2022/09/16 09:24:18;;;;;;;;;;;36.00;26.80;;;;;;6239803;22;20308;-90
2022/09/16 09:26:47;;;;;;;;;;;36.00;26.90;;;;;;6237105;23;19922;-89
2022/09/16 09:29:12;;;;;;;;;;;36.10;26.20;;;;;;6240877;22;19971;-89
2022/09/16 09:31:58;;;;;;;;;;;36.20;25.50;;;;;;6236415;23;19915;-88
2022/09/16 09:34:35;;;;;;;;;;;36.30;25.60;;;;;;6239487;22;19942;-92
2022/09/16 09:37:08;;;;;;;;;;;36.40;24.30;;;;;;6239049;22;19990;-89
2022/09/16 09:39:48;;;;;;;;;;;36.50;24.20;;;;;;6239071;22;19915;-86
2022/09/16 09:42:20;;;;;;;;;;;36.50;24.10;;;;;;6240194;22;20303;-88
2022/09/16 09:44:49;;;;;;;;;;;36.70;23.10;;;;;;6236897;22;20423;-89
2022/09/16 09:47:18;;;;;;;;;;;36.80;23.00;;;;;;6240822;23;20291;-92
2022/09/16 09:49:49;;;;;;;;;;;36.90;22.80;;;;;;6237636;22;19915;-91
2022/09/16 09:52:34;;;;;;;;;;;;;;;;;;;;;
2022/09/16 09:55:11;;;;;;;;;;;36.70;23.10;;;;;;6235828;22;20014;-92
2022/09/16 09:57:45;;;;;;;;;;;36.30;22.60;;;;;;6239402;22;20391;-92
2022/09/16 10:00:15;;;;;;;;;;;36.00;22.40;;;;;;6239398;23;19908;-86
2022/09/16 10:02:42;;;;;;;;;;;35.70;22.70;;;;;;6237657;23;19939;-88
2022/09/16 10:05:27;;;;;;;;;;;35.20;22.60;;;;;;6236357;22;19974;-91
2022/09/16 10:07:54;;;;;;;;;;;34.90;22.90;;;;;;6238116;22;19943;-87
2022/09/16 10:10:24;;;;;;;;;;;34.70;23.20;;;;;;6239528;23;19923;-91
2022/09/16 10:12:49;;;;;;;;;;;34.30;22.90;;;;;;6239092;22;19912;-87
2022/09/16 10:15:28;;;;;;;;;;;33.80;23.00;;;;;;6236212;22;20038;-86
2022/09/16 10:17:55;;;;;;;;;;;33.40;23.20;;;;;;6237878;22;20252;-86
2022/09/16 10:20:28;;;;;;;;;;;33.50;23.70;;;;;;6239371;22;20271;-92
2022/09/16 10:22:57;;;;;;;;;;;33.90;23.80;;;;;;6239834;22;19994;-91
2022/09/16 10:25:23;;;;;;;;;;;34.30;23.10;;;;;;6235986;22;19907;-93
2022/09/16 10:28:12;;;;;;;;;;;34.70;22.80;;;;;;6238177;22;19947;-89
2022/09/16 10:30:43;;;;;;;;;;;34.60;22.80;;;;;;6237735;22;19962;-88
2022/09/16 10:33:22;;;;;;;;;;;34.80;22.70;;;;;;6240044;22;20283;-89
2022/09/16 10:35:59;;;;;;;;;;;35.30;22.90;;;;;;6235936;23;19912;-89
2022/09/16 10:38:36;;;;;;;;;;;35.70;22.10;;;;;;6238168;22;20392;-87
2022/09/16 10:41:13;;;;;;;;;;;36.10;21.70;;;;;;6243661;22;19979;-89
2022/09/16 10:43:45;;;;;;;;;;;36.30;21.00;;;;;;6237399;22;19918;-89
2022/09/16 10:46:13;;;;;;;;;;;36.40;20.90;;;;;;6233082;23;19919;-88
2022/09/16 10:48:40;;;;;;;;;;;36.30;20.90;;;;;;6238731;22;19919;-89
2022/09/16 10:51:15;;;;;;;;;;;36.20;21.20;;;;;;6238182;22;19918;-88
2022/09/16 10:53:44;;;;;;;;;;;36.20;20.50;;;;;;6238760;22;19911;-89
2022/09/16 10:56:15;;;;;;;;;;;36.30;20.30;;;;;;6235130;22;19939;-89
2022/09/16 10:58:41;;;;;;;;;;;36.60;19.50;;;;;;6239318;22;19916;-87
2022/09/16 11:01:27;;;;;;;;;;;36.30;19.10;;;;;;6237858;23;19918;-92
2022/09/16 11:03:55;;;;;;;;;;;35.80;19.40;;;;;;6243326;22;19911;-89
2022/09/16 11:06:44;;;;;;;;;;;35.20;19.70;;;;;;6233829;23;19994;-93
2022/09/16 11:09:18;;;;;;;;;;;34.90;20.20;;;;;;6199015;23;20353;-93
2022/09/16 11:11:44;;;;;;;;;;;35.10;20.30;;;;;;6240999;22;19966;-88
2022/09/16 11:14:09;;;;;;;;;;;35.30;19.90;;;;;;6236711;22;19912;-86
2022/09/16 11:16:47;;;;;;;;;;;35.50;19.90;;;;;;6235610;23;19911;-89
2022/09/16 11:19:18;;;;;;;;;;;35.80;19.60;;;;;;6239700;22;20698;-89
2022/09/16 11:21:46;;;;;;;;;;;36.00;19.20;;;;;;6238189;22;19915;-88
2022/09/16 11:24:13;;;;;;;;;;;36.20;19.00;;;;;;6238251;22;19947;-87
2022/09/16 11:26:46;;;;;;;;;;;36.30;19.10;;;;;;6236964;23;20319;-87
2022/09/16 11:29:18;;;;;;;;;;;36.50;18.70;;;;;;6237950;22;19930;-88
2022/09/16 11:32:08;;;;;;;;;;;36.70;18.50;;;;;;6237484;23;19998;-92
2022/09/16 11:34:34;;;;;;;;;;;36.80;18.00;;;;;;6238371;22;19980;-86
2022/09/16 11:37:09;;;;;;;;;;;37.00;18.00;;;;;;6238606;23;19939;-93
2022/09/16 11:39:45;;;;;;;;;;;36.70;18.20;;;;;;6239340;22;19958;-93
2022/09/16 11:42:30;;;;;;;;;;;36.50;18.30;;;;;;6240899;23;19970;-90
2022/09/16 11:45:13;;;;;;;;;;;36.00;18.00;;;;;;6236646;22;20015;-87
2022/09/16 11:47:57;;;;;;;;;;;35.20;18.30;;;;;;6240258;22;19962;-89
2022/09/16 11:50:32;;;;;;;;;;;34.60;18.70;;;;;;6237576;23;19914;-87
2022/09/16 11:53:23;;;;;;;;;;;34.50;18.90;;;;;;6240601;22;19907;-86
2022/09/16 11:55:52;;;;;;;;;;;34.30;19.20;;;;;;6237570;23;19916;-86
2022/09/16 11:58:25;;;;;;;;;;;33.80;19.50;;;;;;6236103;22;19986;-91
2022/09/16 12:00:53;;;;;;;;;;;33.80;19.80;;;;;;6240511;22;20625;-92
2022/09/16 12:03:24;;;;;;;;;;;33.60;19.80;;;;;;6238399;22;19956;-89
2022/09/16 12:05:55;;;;;;;;;;;33.10;20.10;;;;;;6241097;23;20411;-93
2022/09/16 12:08:23;;;;;;;;;;;32.30;23.60;;;;;;6236703;22;19970;-87
2022/09/16 12:10:53;;;;;;;;;;;30.80;29.00;;;;;;6238152;23;19943;-89
2022/09/16 12:13:24;;;;;;;;;;;28.90;31.50;;;;;;6261878;22;20316;-86
2022/09/16 12:15:56;;;;;;;;;;;27.00;35.70;;;;;;6236557;23;19990;-89
2022/09/16 12:18:33;;;;;;;;;;;25.30;41.90;;;;;;6238127;22;19908;-88
2022/09/16 12:21:07;;;;;;;;;;;24.00;45.90;;;;;;6238009;22;19927;-86
2022/09/16 12:23:34;;;;;;;;;;;22.90;49.10;;;;;;6237271;22;19939;-87
2022/09/16 12:26:11;;;;;;;;;;;22.30;51.30;;;;;;6237564;22;19915;-86
2022/09/16 12:28:44;;;;;;;;;;;21.80;53.10;;;;;;6235336;22;20406;-90
2022/09/16 12:31:25;;;;;;;;;;;21.70;55.20;;;;;;6239473;22;20000;-86
2022/09/16 12:34:07;;;;;;;;;;;22.30;56.20;;;;;;6237602;22;19914;-89
2022/09/16 12:36:35;;;;;;;;;;;22.50;55.60;;;;;;6238335;23;19986;-88
2022/09/16 12:39:01;;;;;;;;;;;22.30;55.60;;;;;;6239516;22;20510;-86
2022/09/16 12:41:45;;;;;;;;;;;22.00;56.10;;;;;;6240856;22;19915;-84
2022/09/16 12:44:19;;;;;;;;;;;21.90;56.50;;;;;;6239300;22;19907;-87
2022/09/16 12:46:53;;;;;;;;;;;22.50;57.70;;;;;;6239814;22;19920;-88
2022/09/16 12:49:38;;;;;;;;;;;23.30;57.10;;;;;;6238477;22;19915;-92
2022/09/16 12:52:06;;;;;;;;;;;24.10;56.30;;;;;;6238997;23;19930;-90
2022/09/16 12:54:37;;;;;;;;;;;24.70;56.10;;;;;;6241234;22;19911;-88
2022/09/16 12:57:21;;;;;;;;;;;25.20;55.30;;;;;;6242190;23;19922;-87
2022/09/16 12:59:50;;;;;;;;;;;25.60;54.30;;;;;;6241432;22;19991;-91
2022/09/16 13:02:17;;;;;;;;;;;25.80;54.40;;;;;;6242154;23;19915;-89
2022/09/16 13:04:44;;;;;;;;;;;26.00;53.40;;;;;;6241439;22;19908;-87
2022/09/16 13:07:20;;;;;;;;;;;26.20;53.30;;;;;;6241810;22;19915;-86
2022/09/16 13:09:46;;;;;;;;;;;26.40;52.90;;;;;;6239950;22;19907;-89
2022/09/16 13:12:25;;;;;;;;;;;26.40;53.10;;;;;;6240340;23;20410;-88
2022/09/16 13:14:53;;;;;;;;;;;26.60;52.40;;;;;;6241671;22;20370;-88
2022/09/16 13:17:27;;;;;;;;;;;26.60;52.50;;;;;;6242264;23;20006;-93
2022/09/16 13:19:53;;;;;;;;;;;26.50;52.20;;;;;;6242534;22;19915;-87
2022/09/16 13:22:25;;;;;;;;;;;26.40;52.50;;;;;;6240086;23;19922;-87
2022/09/16 13:25:00;;;;;;;;;;;26.20;52.30;;;;;;6240427;22;19950;-93
2022/09/16 13:27:28;;;;;;;;;;;25.80;52.10;;;;;;6241914;23;19928;-88
2022/09/16 13:30:11;;;;;;;;;;;25.30;52.80;;;;;;6244051;22;19908;-88
2022/09/16 13:32:37;;;;;;;;;;;24.80;53.80;;;;;;6242453;23;19938;-93
2022/09/16 13:35:15;;;;;;;;;;;24.20;54.00;;;;;;6238613;22;19908;-89
2022/09/16 13:37:40;;;;;;;;;;;23.80;54.90;;;;;;6240517;23;20335;-89
2022/09/16 13:40:24;;;;;;;;;;;23.30;55.30;;;;;;6240696;22;19991;-89
2022/09/16 13:42:50;;;;;;;;;;;23.00;56.00;;;;;;6239277;22;19911;-89
2022/09/16 13:45:34;;;;;;;;;;;22.70;55.90;;;;;;6238968;22;20256;-90
2022/09/16 13:48:19;;;;;;;;;;;22.50;56.40;;;;;;6239540;22;19920;-87
2022/09/16 13:50:49;;;;;;;;;;;22.40;57.30;;;;;;6238081;23;19918;-94
2022/09/16 13:53:31;;;;;;;;;;;22.30;58.00;;;;;;6237624;22;19966;-88
2022/09/16 13:56:23;;;;;;;;;;;22.30;57.90;;;;;;6233268;23;19918;-88
2022/09/16 13:59:01;;;;;;;;;;;22.40;58.20;;;;;;6238455;22;20023;-90
2022/09/16 14:01:36;;;;;;;;;;;22.40;57.70;;;;;;6237671;23;19931;-89
2022/09/16 14:04:19;;;;;;;;;;;22.40;58.10;;;;;;6238461;22;19916;-87
2022/09/16 14:07:03;;;;;;;;;;;22.30;57.60;;;;;;6232173;23;19958;-88
2022/09/16 14:09:32;;;;;;;;;;;22.30;56.60;;;;;;6236758;22;19960;-90
2022/09/16 14:12:03;;;;;;;;;;;22.20;56.40;;;;;;6238796;23;19912;-88
2022/09/16 14:14:31;;;;;;;;;;;22.20;56.70;;;;;;6235963;22;19911;-93
2022/09/16 14:17:00;;;;;;;;;;;22.20;57.50;;;;;;6235175;23;19994;-90
2022/09/16 14:19:36;;;;;;;;;;;22.30;56.20;;;;;;6261900;22;20011;-90
2022/09/16 14:22:03;;;;;;;;;;;22.30;55.60;;;;;;6238129;22;19914;-90
2022/09/16 14:24:36;;;;;;;;;;;22.30;54.30;;;;;;6238692;22;19922;-89
2022/09/16 14:27:02;;;;;;;;;;;22.40;53.90;;;;;;6233800;23;19985;-87
2022/09/16 14:29:27;;;;;;;;;;;22.40;53.90;;;;;;6237560;22;19923;-90
2022/09/16 14:31:54;;;;;;;;;;;22.50;52.60;;;;;;6237341;23;19982;-87
2022/09/16 14:34:34;;;;;;;;;;;22.70;53.00;;;;;;6236782;22;19938;-87